Time;durP1;ratioP1;P1;durP2;ratioP2;P2;SDS_P1;SDS_P2;PMS_P1;PMS_P2;Temp;Humidity;BMP_temperature;BMP_pressure;BME280_temperature;BME280_humidity;BME280_pressure;Samples;Min_cycle;Max_cycle;Signal;HPM_P1;HPM_P2
2024/02/12 00:00:36;;;;;;;2.15;1.20;;;7.00;99.90;;;7.11;100.00;98831.78;6127008;23;20171;-68
2024/02/12 00:03:06;;;;;;;1.55;1.15;;;7.00;99.90;;;7.13;100.00;98829.66;6127006;23;20202;-69
2024/02/12 00:05:36;;;;;;;0.90;0.70;;;7.10;99.90;;;7.23;100.00;98835.31;6126122;23;20520;-69
2024/02/12 00:08:10;;;;;;;3.08;2.45;;;7.20;99.90;;;7.10;100.00;98835.50;6126480;23;20214;-69
2024/02/12 00:10:39;;;;;;;1.58;1.00;;;7.10;99.90;;;7.08;100.00;98839.47;6127128;23;20154;-69
2024/02/12 00:13:08;;;;;;;1.50;1.13;;;7.10;99.90;;;7.07;100.00;98835.94;6128768;23;20157;-69
2024/02/12 00:15:38;;;;;;;1.30;1.13;;;7.00;99.90;;;7.05;100.00;98842.63;6129102;23;20151;-68
2024/02/12 00:18:07;;;;;;;2.35;2.08;;;7.10;99.90;;;6.99;100.00;98839.78;6129825;23;20189;-69
2024/02/12 00:20:36;;;;;;;2.47;1.02;;;7.00;99.90;;;6.91;100.00;98842.00;6128221;23;20195;-69
2024/02/12 00:23:06;;;;;;;0.90;0.73;;;6.90;99.90;;;7.03;100.00;98850.09;6127783;23;20194;-69
2024/02/12 00:25:36;;;;;;;1.00;0.75;;;7.00;99.90;;;6.99;100.00;98853.25;6128325;23;20222;-68
2024/02/12 00:28:07;;;;;;;1.67;1.33;;;7.00;99.90;;;7.06;100.00;98847.78;6128035;23;20186;-68
2024/02/12 00:30:39;;;;;;;2.20;1.70;;;7.00;99.90;;;7.02;100.00;98851.94;6128033;23;20158;-69
2024/02/12 00:33:08;;;;;;;2.60;2.25;;;7.00;99.90;;;6.99;100.00;98860.47;6126537;23;20626;-68
2024/02/12 00:35:38;;;;;;;1.92;1.67;;;7.00;99.90;;;7.00;100.00;98851.38;6126092;23;20151;-67
2024/02/12 00:38:07;;;;;;;2.58;1.25;;;7.00;99.90;;;6.83;100.00;98856.56;6125994;23;20195;-69
2024/02/12 00:40:40;;;;;;;2.33;1.38;;;6.90;99.90;;;6.96;100.00;98856.41;6124946;23;20170;-67
2024/02/12 00:43:08;;;;;;;1.27;1.15;;;6.90;99.90;;;7.03;100.00;98858.97;6126372;23;20155;-69
2024/02/12 00:45:38;;;;;;;1.80;1.35;;;7.00;99.90;;;7.06;100.00;98866.59;6126705;23;20163;-68
2024/02/12 00:48:07;;;;;;;1.10;0.95;;;7.00;99.90;;;6.92;100.00;98865.16;6126114;23;20197;-69
2024/02/12 00:50:36;;;;;;;1.33;1.13;;;6.90;99.90;;;6.99;100.00;98866.69;6126053;23;20152;-69
2024/02/12 00:53:05;;;;;;;1.80;1.00;;;7.00;99.90;;;6.98;100.00;98864.22;6126167;23;20151;-68
2024/02/12 00:55:34;;;;;;;2.85;0.70;;;6.90;99.90;;;6.94;100.00;98873.78;6125904;23;20192;-68
2024/02/12 00:58:04;;;;;;;1.60;1.50;;;6.90;99.90;;;6.92;100.00;98868.63;6125962;23;20186;-69
2024/02/12 01:00:32;;;;;;;0.80;0.50;;;6.90;99.90;;;6.93;100.00;98874.81;6126366;23;20182;-68
2024/02/12 01:03:01;;;;;;;0.90;0.65;;;6.90;99.90;;;6.87;100.00;98878.44;6126178;23;20179;-68
2024/02/12 01:05:30;;;;;;;1.45;0.93;;;6.90;99.90;;;6.94;100.00;98869.22;6127632;23;20608;-69
2024/02/12 01:07:59;;;;;;;1.33;1.23;;;6.90;99.90;;;6.87;100.00;98867.69;6128085;23;20191;-67
2024/02/12 01:10:27;;;;;;;1.40;1.00;;;6.90;99.90;;;6.88;100.00;98866.63;6127092;23;20173;-67
2024/02/12 01:12:55;;;;;;;1.50;0.93;;;6.90;99.90;;;6.91;100.00;98869.69;6126058;23;20494;-68
2024/02/12 01:15:25;;;;;;;1.10;0.90;;;6.90;99.90;;;6.96;100.00;98872.53;6125997;23;20154;-69
2024/02/12 01:17:54;;;;;;;1.48;1.20;;;7.00;99.90;;;6.95;100.00;98878.13;6125879;23;20245;-69
2024/02/12 01:20:37;;;;;;;0.90;0.65;;;6.90;99.90;;;6.92;100.00;98870.53;6125698;23;20147;-68
2024/02/12 01:23:08;;;;;;;1.15;1.05;;;6.90;99.90;;;6.84;100.00;98876.19;6126092;23;20171;-69
2024/02/12 01:25:38;;;;;;;2.90;1.67;;;6.80;99.90;;;6.86;100.00;98882.19;6125832;23;20166;-68
2024/02/12 01:28:07;;;;;;;1.33;1.05;;;6.90;99.90;;;6.85;100.00;98880.53;6123978;23;20277;-68
2024/02/12 01:30:39;;;;;;;1.77;1.58;;;6.80;99.90;;;6.80;100.00;98877.69;6126100;23;20151;-69
2024/02/12 01:33:07;;;;;;;1.10;0.90;;;6.80;99.90;;;6.81;100.00;98871.28;6126219;23;20174;-70
2024/02/12 01:35:39;;;;;;;1.55;1.38;;;6.80;99.90;;;6.81;100.00;98873.97;6126062;23;20273;-68
2024/02/12 01:38:08;;;;;;;1.42;0.88;;;6.80;99.90;;;6.93;100.00;98877.53;6125563;23;20530;-68
2024/02/12 01:40:37;;;;;;;1.25;0.82;;;6.90;99.90;;;6.93;100.00;98872.97;6125942;23;20202;-68
2024/02/12 01:43:06;;;;;;;1.00;0.70;;;6.90;99.90;;;6.98;100.00;98870.41;6126226;23;20154;-68
2024/02/12 01:45:35;;;;;;;2.78;2.28;;;6.90;99.90;;;6.87;100.00;98875.75;6128116;23;20198;-68
2024/02/12 01:48:09;;;;;;;1.75;1.65;;;6.90;99.90;;;6.93;100.00;98877.53;6127324;23;20197;-68
2024/02/12 01:50:38;;;;;;;1.25;0.85;;;6.90;99.90;;;6.91;100.00;98879.63;6127793;23;20167;-66
2024/02/12 01:53:07;;;;;;;0.80;0.70;;;6.90;99.90;;;6.94;100.00;98885.38;6127952;23;20214;-69
2024/02/12 01:55:36;;;;;;;1.10;0.93;;;6.90;99.90;;;6.98;100.00;98883.03;6127848;23;20638;-69
2024/02/12 01:58:05;;;;;;;0.85;0.60;;;6.90;99.90;;;6.98;100.00;98874.97;6126491;23;20195;-69
2024/02/12 02:00:34;;;;;;;1.38;1.05;;;6.90;99.90;;;7.00;100.00;98883.63;6127990;23;20179;-68
2024/02/12 02:03:08;;;;;;;1.00;0.80;;;6.90;99.90;;;6.84;100.00;98885.09;6126183;23;20604;-69
2024/02/12 02:05:39;;;;;;;1.17;0.63;;;6.90;99.90;;;6.90;100.00;98883.38;6127538;23;20159;-68
2024/02/12 02:08:08;;;;;;;2.08;0.85;;;6.80;99.90;;;6.94;100.00;98887.22;6127778;23;20253;-69
2024/02/12 02:10:37;;;;;;;1.85;1.23;;;6.90;99.90;;;7.01;100.00;98885.28;6127886;23;20163;-67
2024/02/12 02:13:06;;;;;;;1.42;1.05;;;6.90;99.90;;;6.98;100.00;98883.84;6127573;23;20258;-68
2024/02/12 02:15:36;;;;;;;1.95;1.55;;;6.90;99.90;;;6.91;100.00;98883.16;6127243;23;20663;-68
2024/02/12 02:18:06;;;;;;;1.00;0.85;;;6.90;99.90;;;6.91;100.00;98891.22;6126809;23;20186;-70
2024/02/12 02:20:36;;;;;;;0.82;0.65;;;6.90;99.90;;;6.84;100.00;98885.09;6127481;23;20230;-71
2024/02/12 02:23:06;;;;;;;2.40;1.73;;;6.80;99.90;;;6.89;100.00;98887.09;6127994;23;20663;-68
2024/02/12 02:25:36;;;;;;;0.80;0.50;;;6.80;99.90;;;6.84;100.00;98881.56;6126887;23;20163;-69
2024/02/12 02:28:05;;;;;;;2.55;1.95;;;6.80;99.90;;;6.90;100.00;98888.75;6127411;23;20198;-68
2024/02/12 02:30:34;;;;;;;1.23;1.02;;;6.80;99.90;;;6.90;100.00;98894.13;6127374;23;20600;-70
2024/02/12 02:33:03;;;;;;;1.15;0.82;;;6.90;99.90;;;6.89;100.00;98887.91;6127278;23;20170;-69
2024/02/12 02:35:32;;;;;;;2.15;0.93;;;6.80;99.90;;;6.86;100.00;98895.63;6127315;23;20214;-67
2024/02/12 02:38:01;;;;;;;1.15;1.05;;;6.80;99.90;;;6.95;100.00;98896.94;6127145;23;20732;-68
2024/02/12 02:40:30;;;;;;;1.20;0.70;;;6.90;99.90;;;6.98;100.00;98896.47;6126928;23;20226;-68
2024/02/12 02:43:00;;;;;;;1.52;0.93;;;6.90;99.90;;;6.90;100.00;98902.19;6126792;23;20155;-68
2024/02/12 02:45:30;;;;;;;1.85;1.60;;;6.90;99.90;;;6.87;100.00;98908.03;6126957;23;20170;-69
2024/02/12 02:47:58;;;;;;;1.33;0.70;;;6.80;99.90;;;7.01;100.00;98908.66;6126745;23;20190;-67
2024/02/12 02:50:29;;;;;;;1.08;0.80;;;6.90;99.90;;;7.01;100.00;98906.81;6127143;23;20147;-68
2024/02/12 02:52:58;;;;;;;1.80;1.35;;;6.90;99.90;;;6.98;100.00;98902.69;6126967;23;20174;-68
2024/02/12 02:55:28;;;;;;;3.20;1.85;;;6.90;99.90;;;6.96;100.00;98901.28;6126636;23;20163;-68
2024/02/12 02:58:01;;;;;;;0.80;0.60;;;6.90;99.90;;;6.93;100.00;98909.78;6127197;23;20182;-69
2024/02/12 03:00:33;;;;;;;3.33;1.73;;;6.90;99.90;;;7.05;100.00;98907.97;6125228;23;20197;-69
2024/02/12 03:03:03;;;;;;;1.40;1.30;;;7.00;99.90;;;7.02;100.00;98908.41;6127157;23;20156;-67
2024/02/12 03:05:31;;;;;;;2.47;1.48;;;7.00;99.90;;;6.94;100.00;98911.44;6126772;23;20159;-68
2024/02/12 03:08:02;;;;;;;1.33;1.23;;;6.90;99.90;;;7.04;100.00;98911.72;6126522;23;20194;-67
2024/02/12 03:10:31;;;;;;;2.30;1.60;;;7.00;99.90;;;7.02;100.00;98915.69;6126818;23;20147;-68
2024/02/12 03:13:00;;;;;;;1.50;1.40;;;7.00;99.90;;;6.95;100.00;98918.47;6126573;23;20596;-69
2024/02/12 03:15:31;;;;;;;1.15;0.77;;;6.90;99.90;;;6.96;100.00;98918.25;6126920;23;20171;-69
2024/02/12 03:18:01;;;;;;;0.90;0.57;;;6.90;99.90;;;6.95;100.00;98918.47;6127119;23;20186;-68
2024/02/12 03:20:30;;;;;;;1.27;0.85;;;6.90;99.90;;;7.04;100.00;98918.97;6126842;23;20172;-69
2024/02/12 03:22:59;;;;;;;1.85;1.60;;;6.90;99.90;;;7.07;100.00;98916.63;6132530;23;20151;-68
2024/02/12 03:25:28;;;;;;;1.55;1.05;;;7.00;99.90;;;7.11;100.00;98917.00;6131954;23;20190;-68
2024/02/12 03:27:56;;;;;;;2.67;1.40;;;7.00;99.90;;;7.01;100.00;98916.72;6132956;23;20182;-68
2024/02/12 03:30:26;;;;;;;1.00;0.90;;;7.00;99.90;;;7.04;100.00;98917.09;6131296;23;20163;-68
2024/02/12 03:32:55;;;;;;;3.38;1.33;;;7.00;99.90;;;7.09;100.00;98924.47;6129733;23;20203;-68
2024/02/12 03:35:25;;;;;;;1.80;1.63;;;7.00;99.90;;;7.09;100.00;98922.59;6129701;23;20210;-69
2024/02/12 03:37:54;;;;;;;1.45;0.80;;;7.00;99.90;;;7.06;100.00;98917.69;6130053;23;20190;-69
2024/02/12 03:40:28;;;;;;;2.10;1.90;;;7.00;99.90;;;6.95;100.00;98923.84;6131707;23;20171;-69
2024/02/12 03:42:57;;;;;;;1.33;1.15;;;6.90;99.90;;;7.07;100.00;98926.59;6129063;23;20489;-68
2024/02/12 03:45:26;;;;;;;3.15;1.80;;;7.00;99.90;;;7.08;100.00;98929.03;6128147;23;20584;-69
2024/02/12 03:59:53;;;;;;;2.10;1.25;;;7.10;99.90;;;7.17;100.00;98935.72;6126258;23;20183;-69
2024/02/12 04:02:23;;;;;;;2.58;1.55;;;7.10;99.90;;;7.18;100.00;98950.84;6126427;23;20161;-66
2024/02/12 04:04:52;;;;;;;2.90;2.65;;;7.10;99.90;;;7.17;100.00;98951.06;6126473;23;20585;-68
2024/02/12 04:07:24;;;;;;;1.63;1.45;;;7.10;99.90;;;7.05;100.00;98951.00;6124152;23;20171;-68
2024/02/12 04:09:53;;;;;;;3.70;3.40;;;7.10;99.90;;;7.19;100.00;98946.28;6124968;23;20241;-67
2024/02/12 04:12:21;;;;;;;4.68;2.08;;;7.10;99.90;;;7.19;100.00;98957.84;6126245;23;20194;-67
2024/02/12 04:14:51;;;;;;;1.55;1.17;;;7.10;99.90;;;7.17;100.00;98953.75;6126556;23;20580;-68
2024/02/12 04:17:20;;;;;;;3.20;1.15;;;7.10;99.90;;;7.14;100.00;98949.66;6126417;23;20178;-69
2024/02/12 04:19:49;;;;;;;1.52;1.25;;;7.10;99.90;;;7.18;100.00;98958.91;6126175;23;20155;-68
2024/02/12 04:22:18;;;;;;;2.55;1.40;;;7.10;99.90;;;7.16;100.00;98961.00;6126312;23;20206;-69
2024/02/12 04:24:48;;;;;;;2.20;1.60;;;7.10;99.90;;;7.11;100.00;98963.56;6125996;23;20163;-69
2024/02/12 04:27:19;;;;;;;2.08;1.02;;;7.10;99.90;;;7.28;100.00;98967.25;6126403;23;20163;-68
2024/02/12 04:29:47;;;;;;;1.92;1.80;;;7.20;99.90;;;7.22;100.00;98968.16;6126238;23;20231;-68
2024/02/12 04:32:16;;;;;;;2.35;2.15;;;7.20;99.90;;;7.29;100.00;98970.75;6125988;23;20156;-68
2024/02/12 04:34:44;;;;;;;3.63;1.75;;;7.20;99.90;;;7.30;100.00;98965.16;6125875;23;20171;-68
2024/02/12 04:37:13;;;;;;;1.45;1.27;;;7.20;99.90;;;7.31;100.00;98969.47;6125937;23;20608;-68
2024/02/12 04:39:41;;;;;;;1.50;1.40;;;7.30;99.90;;;7.36;100.00;98977.69;6126021;23;20249;-67
2024/02/12 04:42:12;;;;;;;7.40;2.42;;;7.30;99.90;;;7.37;100.00;98975.81;6125839;23;20642;-67
2024/02/12 04:44:41;;;;;;;2.75;2.50;;;7.30;99.90;;;7.38;100.00;98978.28;6126254;23;20533;-68
2024/02/12 04:47:09;;;;;;;3.20;2.97;;;7.30;99.90;;;7.35;100.00;98976.06;6125694;23;20163;-68
2024/02/12 04:49:38;;;;;;;4.15;1.80;;;7.30;99.90;;;7.38;100.00;98978.28;6125506;23;20195;-68
2024/02/12 04:52:08;;;;;;;4.65;2.45;;;7.30;99.90;;;7.44;100.00;98976.56;6125693;23;20214;-68
2024/02/12 04:54:38;;;;;;;2.63;2.40;;;7.30;99.90;;;7.38;100.00;98978.28;6125914;23;20571;-68
2024/02/12 04:57:07;;;;;;;3.05;2.25;;;7.30;99.90;;;7.39;100.00;98989.88;6125622;23;20233;-68
2024/02/12 04:59:38;;;;;;;2.33;1.88;;;7.30;99.90;;;7.34;100.00;98984.34;6125467;23;20225;-69
2024/02/12 05:02:08;;;;;;;3.60;2.33;;;7.30;99.90;;;7.38;100.00;98989.06;6125684;23;20627;-68
2024/02/12 05:04:36;;;;;;;22.92;2.78;;;7.30;99.90;;;7.49;100.00;98989.34;6125619;23;20483;-69
2024/02/12 05:07:10;;;;;;;2.38;1.38;;;7.40;99.90;;;7.52;100.00;99002.31;6125974;23;20529;-68
2024/02/12 05:09:39;;;;;;;1.88;1.48;;;7.40;99.90;;;7.45;100.00;98993.53;6125689;23;20182;-68
2024/02/12 05:12:08;;;;;;;2.15;1.83;;;7.40;99.90;;;7.38;100.00;98997.13;6125853;23;20147;-69
2024/02/12 05:14:37;;;;;;;2.92;2.22;;;7.40;99.90;;;7.45;100.00;98998.91;6125604;23;20167;-69
2024/02/12 05:17:09;;;;;;;1.90;1.40;;;7.40;99.90;;;7.40;100.00;98996.91;6125630;23;20234;-69
2024/02/12 05:22:35;;;;;;;3.35;2.28;;;7.40;99.90;;;7.47;100.00;99003.00;6125713;23;20177;-68
2024/02/12 05:25:05;;;;;;;1.90;1.55;;;7.40;99.90;;;7.48;100.00;99001.97;6125609;23;20171;-69
2024/02/12 05:27:35;;;;;;;6.82;3.67;;;7.40;99.90;;;7.50;100.00;99001.75;6125636;23;20647;-69
2024/02/12 05:30:06;;;;;;;3.17;2.88;;;7.40;99.90;;;7.46;100.00;99011.31;6125457;23;20159;-68
2024/02/12 05:32:36;;;;;;;5.85;2.25;;;7.40;99.90;;;7.48;100.00;99009.22;6125785;23;20494;-69
2024/02/12 05:35:06;;;;;;;2.08;1.83;;;7.40;99.90;;;7.44;100.00;99008.84;6125555;23;20163;-69
2024/02/12 05:37:35;;;;;;;6.90;2.70;;;7.40;99.90;;;7.40;100.00;99011.19;6125453;23;20681;-67
2024/02/12 05:40:07;;;;;;;6.53;2.58;;;7.40;99.90;;;7.40;100.00;99011.19;6126993;23;20182;-69
2024/02/12 05:42:37;;;;;;;1.45;1.27;;;7.40;99.90;;;7.40;100.00;99010.38;6126330;23;20170;-68
2024/02/12 05:45:10;;;;;;;2.38;1.65;;;7.40;99.90;;;7.47;100.00;99023.72;6126126;23;20170;-67
2024/02/12 05:47:40;;;;;;;4.25;2.30;;;7.40;99.90;;;7.50;100.00;99020.59;6125778;23;20194;-67
2024/02/12 05:50:09;;;;;;;4.30;3.90;;;7.40;99.90;;;7.49;100.00;99024.31;6125804;23;20185;-67
2024/02/12 05:52:39;;;;;;;2.03;1.85;;;7.40;99.90;;;7.54;100.00;99033.34;6126206;23;20459;-67
2024/02/12 05:55:08;;;;;;;3.38;2.45;;;7.40;99.90;;;7.58;100.00;99031.03;6125944;23;20166;-67
2024/02/12 05:57:36;;;;;;;1.83;1.48;;;7.50;99.90;;;7.58;100.00;99036.41;6125569;23;20241;-67
2024/02/12 06:00:10;;;;;;;1.80;1.05;;;7.50;99.90;;;7.59;100.00;99033.50;6126002;23;20171;-66
2024/02/12 06:02:39;;;;;;;2.17;1.92;;;7.50;99.90;;;7.61;100.00;99035.94;6125505;23;20270;-68
2024/02/12 06:05:08;;;;;;;3.67;2.80;;;7.50;99.90;;;7.57;100.00;99048.22;6125847;23;20155;-67
2024/02/12 06:07:39;;;;;;;4.70;3.60;;;7.50;99.90;;;7.53;100.00;99044.34;6125472;23;20583;-68
2024/02/12 06:10:09;;;;;;;4.93;2.78;;;7.50;99.90;;;7.54;100.00;99051.38;6125612;23;20639;-67
2024/02/12 06:12:37;;;;;;;5.35;1.60;;;7.50;99.90;;;7.61;100.00;99058.28;6125682;23;20504;-68
2024/02/12 06:15:09;;;;;;;3.10;1.90;;;7.50;99.90;;;7.66;100.00;99060.31;6125485;23;20147;-66
2024/02/12 06:17:38;;;;;;;3.00;2.80;;;7.50;99.90;;;7.56;100.00;99065.41;6125233;23;20187;-68
2024/02/12 06:20:11;;;;;;;13.23;2.90;;;7.50;99.90;;;7.58;100.00;99057.94;6125138;23;20511;-68
2024/02/12 06:22:40;;;;;;;3.00;2.10;;;7.50;99.90;;;7.63;100.00;99061.59;6125007;23;20175;-69
2024/02/12 06:25:10;;;;;;;5.15;2.40;;;7.60;99.90;;;7.74;100.00;99073.47;6125026;23;20167;-69
2024/02/12 06:27:38;;;;;;;4.13;2.95;;;7.60;99.90;;;7.67;100.00;99070.03;6125446;23;20194;-67
2024/02/12 06:30:12;;;;;;;3.28;2.30;;;7.60;99.90;;;7.68;100.00;99074.38;6126191;23;20158;-68
2024/02/12 06:32:41;;;;;;;3.75;2.30;;;7.60;99.90;;;7.61;100.00;99079.00;6127415;23;20167;-67
2024/02/12 06:35:10;;;;;;;6.97;2.75;;;7.60;99.90;;;7.59;100.00;99075.75;6127330;23;20247;-68
2024/02/12 06:37:39;;;;;;;3.95;2.35;;;7.50;99.90;;;7.61;100.00;99074.44;6126975;23;20187;-68
2024/02/12 06:40:10;;;;;;;4.38;1.65;;;7.60;99.90;;;7.75;100.00;99081.28;6126991;23;20565;-68
2024/02/12 06:42:42;;;;;;;3.65;2.13;;;7.70;99.90;;;7.74;100.00;99095.00;6126930;23;20174;-69
2024/02/12 06:45:13;;;;;;;3.65;2.65;;;7.60;99.90;;;7.75;100.00;99084.00;6126811;23;20187;-67
2024/02/12 06:47:42;;;;;;;4.03;3.28;;;7.60;99.90;;;7.85;100.00;99096.91;6126705;23;20255;-68
2024/02/12 06:50:13;;;;;;;3.15;2.42;;;7.70;99.90;;;7.80;100.00;99096.78;6126637;23;20177;-69
2024/02/12 06:52:53;;;;;;;7.47;3.25;;;7.70;99.90;;;7.76;100.00;99098.28;6126194;23;20156;-68
2024/02/12 06:55:22;;;;;;;6.00;3.72;;;7.70;99.90;;;7.83;100.00;99107.09;6126850;23;20227;-68
2024/02/12 06:57:51;;;;;;;5.70;2.13;;;7.70;99.90;;;7.85;100.00;99113.06;6126748;23;20187;-67
2024/02/12 07:00:21;;;;;;;6.50;2.78;;;7.70;99.90;;;7.88;100.00;99118.00;6125087;23;20518;-68
2024/02/12 07:02:50;;;;;;;5.30;3.63;;;7.80;99.90;;;7.95;100.00;99121.44;6126040;23;20175;-67
2024/02/12 07:05:18;;;;;;;4.35;2.88;;;7.80;99.90;;;7.98;100.00;99117.47;6126283;23;20171;-67
2024/02/12 07:07:47;;;;;;;5.18;2.53;;;7.80;99.90;;;7.94;100.00;99127.84;6126386;23;20719;-66
2024/02/12 07:10:16;;;;;;;4.70;2.70;;;7.90;99.90;;;7.94;100.00;99130.53;6126605;23;20156;-67
2024/02/12 07:12:47;;;;;;;4.28;2.47;;;7.80;99.90;;;7.91;100.00;99133.72;6126513;23;20150;-68
2024/02/12 07:15:16;;;;;;;4.13;3.00;;;7.80;99.90;;;7.95;100.00;99140.28;6126831;23;20163;-66
2024/02/12 07:17:48;;;;;;;3.80;2.45;;;7.90;99.90;;;7.95;100.00;99140.28;6127688;23;20190;-69
2024/02/12 07:20:17;;;;;;;6.32;3.22;;;7.90;99.90;;;7.97;100.00;99145.44;6128422;23;20518;-68
2024/02/12 07:22:46;;;;;;;3.58;2.60;;;7.90;99.90;;;8.01;100.00;99149.31;6126950;23;20266;-67
2024/02/12 07:25:15;;;;;;;6.50;4.78;;;7.90;99.90;;;7.95;100.00;99151.06;6126667;23;20151;-67
2024/02/12 07:27:43;;;;;;;3.45;2.42;;;7.90;99.90;;;8.01;100.00;99160.09;6126278;23;20210;-68
2024/02/12 07:30:13;;;;;;;4.15;1.63;;;7.90;99.90;;;7.98;100.00;99158.69;6126441;23;20143;-68
2024/02/12 07:32:41;;;;;;;6.15;3.42;;;7.90;99.90;;;8.04;100.00;99165.03;6126567;23;20175;-67
2024/02/12 07:35:12;;;;;;;4.32;2.55;;;7.90;99.90;;;8.00;100.00;99170.03;6126558;23;20155;-67
2024/02/12 07:37:41;;;;;;;2.38;1.85;;;7.90;99.90;;;7.90;100.00;99180.53;6126251;23;20273;-69
2024/02/12 07:40:11;;;;;;;2.42;1.98;;;7.90;99.90;;;7.97;100.00;99185.84;6124884;23;20170;-69
2024/02/12 07:42:42;;;;;;;2.03;1.90;;;7.90;99.90;;;7.93;100.00;99180.09;6126900;23;20258;-68
2024/02/12 07:45:13;;;;;;;2.75;1.30;;;7.80;99.90;;;7.91;100.00;99182.19;6126362;23;20512;-67
2024/02/12 07:47:43;;;;;;;3.17;1.70;;;7.80;99.90;;;7.94;100.00;99181.72;6126263;23;20190;-69
2024/02/12 07:50:14;;;;;;;7.60;1.90;;;7.90;99.90;;;8.03;100.00;99185.78;6126459;23;20167;-68
2024/02/12 07:52:45;;;;;;;5.60;3.03;;;7.90;99.90;;;8.04;100.00;99197.34;6126608;23;20147;-68
2024/02/12 07:55:14;;;;;;;4.50;3.17;;;7.90;99.90;;;8.04;100.00;99194.66;6126780;23;20179;-68
2024/02/12 07:57:45;;;;;;;4.28;2.17;;;8.00;99.90;;;8.12;100.00;99205.97;6126665;23;20182;-68
2024/02/12 08:00:15;;;;;;;4.22;1.88;;;8.00;99.90;;;8.14;100.00;99198.44;6126674;23;20190;-68
2024/02/12 08:02:45;;;;;;;3.33;1.77;;;8.00;99.90;;;8.07;100.00;99211.19;6127064;23;20177;-69
2024/02/12 08:05:16;;;;;;;2.30;2.08;;;8.00;99.90;;;8.10;100.00;99216.13;6126654;23;20197;-68
2024/02/12 08:07:45;;;;;;;8.68;4.18;;;8.00;99.90;;;8.13;100.00;99220.25;6127217;23;20583;-68
2024/02/12 08:10:30;;;;;;;9.48;3.58;;;8.00;99.90;;;8.17;100.00;99221.44;6126809;23;20158;-68
2024/02/12 08:13:01;;;;;;;5.45;2.97;;;8.00;99.90;;;8.14;100.00;99228.09;6126291;23;20170;-68
2024/02/12 08:15:30;;;;;;;5.38;3.10;;;8.00;99.90;;;8.24;100.00;99231.06;6126807;23;20155;-69
2024/02/12 08:17:59;;;;;;;3.80;2.60;;;8.10;99.90;;;8.14;100.00;99236.16;6126414;23;20187;-68
2024/02/12 08:20:29;;;;;;;3.95;2.67;;;8.10;99.90;;;8.12;100.00;99237.47;6126452;23;20194;-68
2024/02/12 08:22:58;;;;;;;3.13;1.50;;;8.10;99.90;;;8.18;100.00;99245.44;6126765;23;20214;-69
2024/02/12 08:25:27;;;;;;;3.38;3.08;;;8.00;99.90;;;8.14;100.00;99249.66;6126547;23;20167;-68
2024/02/12 08:27:56;;;;;;;3.47;2.35;;;8.10;99.90;;;8.15;100.00;99243.22;6125416;23;20186;-68
2024/02/12 08:30:25;;;;;;;3.35;1.55;;;8.00;99.90;;;8.22;100.00;99259.31;6125691;23;20169;-68
2024/02/12 08:32:54;;;;;;;7.97;3.30;;;8.10;99.90;;;8.19;100.00;99255.19;6124199;23;20166;-68
2024/02/12 08:35:23;;;;;;;7.55;3.95;;;8.10;99.90;;;8.21;100.00;99261.19;6125425;23;20222;-68
2024/02/12 08:37:54;;;;;;;2.25;1.75;;;8.10;99.90;;;8.24;100.00;99263.41;6124620;23;20197;-68
2024/02/12 08:40:26;;;;;;;3.00;1.77;;;8.20;99.90;;;8.24;100.00;99266.09;6126132;23;20234;-68
2024/02/12 08:42:56;;;;;;;6.75;3.50;;;8.20;99.90;;;8.31;100.00;99270.63;6125981;23;20175;-69
2024/02/12 08:45:25;;;;;;;2.95;2.35;;;8.20;99.90;;;8.20;100.00;99267.59;6126115;23;20230;-69
2024/02/12 08:47:54;;;;;;;6.10;3.92;;;8.10;99.90;;;8.36;100.00;99273.47;6125647;23;20190;-66
2024/02/12 08:50:23;;;;;;;4.60;2.88;;;8.20;99.90;;;8.39;100.00;99281.09;6125667;23;20513;-66
2024/02/12 08:52:53;;;;;;;2.40;1.77;;;8.20;99.90;;;8.31;100.00;99278.72;6125624;23;20171;-69
2024/02/12 08:55:22;;;;;;;3.83;3.10;;;8.20;99.90;;;8.24;100.00;99284.13;6126129;23;20163;-67
2024/02/12 08:57:52;;;;;;;6.25;4.22;;;8.20;99.90;;;8.25;100.00;99286.63;6125647;23;20686;-67
2024/02/12 09:00:21;;;;;;;4.32;2.67;;;8.10;99.90;;;8.31;100.00;99289.50;6125335;23;20155;-68
2024/02/12 09:02:50;;;;;;;5.32;2.47;;;8.20;99.90;;;8.32;100.00;99296.53;6125672;23;20199;-70
2024/02/12 09:05:19;;;;;;;2.88;2.10;;;8.20;99.90;;;8.28;100.00;99286.16;6126007;23;20234;-68
2024/02/12 09:07:48;;;;;;;2.85;2.40;;;8.20;99.90;;;8.32;100.00;99296.53;6125436;23;20182;-66
2024/02/12 09:10:18;;;;;;;2.22;1.95;;;8.20;99.90;;;8.29;100.00;99298.63;6126063;23;20174;-68
2024/02/12 09:12:51;;;;;;;15.27;3.05;;;8.20;99.90;;;8.36;100.00;99308.50;6125873;23;20235;-66
2024/02/12 09:15:22;;;;;;;7.70;2.15;;;8.30;99.90;;;8.45;100.00;99312.53;6125840;23;20155;-68
2024/02/12 09:17:52;;;;;;;4.45;1.77;;;8.30;99.90;;;8.33;100.00;99314.34;6125771;23;20186;-68
2024/02/12 09:20:21;;;;;;;3.70;2.13;;;8.20;99.90;;;8.27;100.00;99310.66;6125509;23;20580;-68
2024/02/12 09:22:51;;;;;;;3.00;2.25;;;8.20;99.90;;;8.41;100.00;99316.72;6125586;23;20187;-68
2024/02/12 09:25:22;;;;;;;1.90;1.60;;;8.30;99.90;;;8.29;100.00;99317.47;6124218;23;20163;-68
2024/02/12 09:27:53;;;;;;;4.03;2.60;;;8.20;99.90;;;8.38;100.00;99325.25;6125545;23;20187;-69
2024/02/12 09:30:22;;;;;;;6.25;3.53;;;8.30;99.90;;;8.42;100.00;99329.16;6125524;23;20626;-69
2024/02/12 09:32:51;;;;;;;4.47;2.72;;;8.30;99.90;;;8.41;100.00;99328.34;6125716;23;20173;-67
2024/02/12 09:35:20;;;;;;;2.22;1.58;;;8.30;99.90;;;8.41;100.00;99343.69;6127715;23;20229;-69
2024/02/12 09:37:49;;;;;;;4.80;2.65;;;8.30;99.90;;;8.43;100.00;99341.56;6126921;23;20187;-68
2024/02/12 09:40:23;;;;;;;2.65;1.25;;;8.30;99.90;;;8.39;100.00;99351.16;6126632;23;20226;-69
2024/02/12 09:42:56;;;;;;;2.38;1.65;;;8.30;99.90;;;8.49;100.00;99348.75;6124905;23;20187;-68
2024/02/12 09:45:28;;;;;;;7.78;2.67;;;8.40;99.90;;;8.52;100.00;99349.13;6124474;23;20305;-68
2024/02/12 09:47:59;;;;;;;2.45;1.80;;;8.40;99.90;;;8.48;100.00;99350.63;6124629;23;20194;-67
2024/02/12 09:50:29;;;;;;;3.08;1.45;;;8.40;99.90;;;8.47;100.00;99353.56;6124426;23;20178;-67
2024/02/12 09:52:58;;;;;;;2.05;1.02;;;8.40;99.90;;;8.58;100.00;99368.97;6124300;23;20165;-67
2024/02/12 09:55:29;;;;;;;1.35;1.02;;;8.40;99.90;;;8.57;100.00;99365.44;6124428;23;20173;-67
2024/02/12 09:58:16;;;;;;;1.90;1.40;;;8.50;99.90;;;8.50;100.00;99367.41;6122699;23;20196;-67
2024/02/12 10:00:45;;;;;;;3.03;2.72;;;8.40;99.90;;;8.41;100.00;99376.03;6124048;23;20606;-68
2024/02/12 10:03:14;;;;;;;4.20;2.60;;;8.40;99.90;;;8.39;100.00;99372.72;6124224;23;20198;-68
2024/02/12 10:05:45;;;;;;;2.67;1.05;;;8.30;99.90;;;8.43;100.00;99372.03;6125586;23;20544;-67
2024/02/12 10:08:21;;;;;;;2.08;1.55;;;8.30;99.90;;;8.44;100.00;99368.31;6126302;23;20184;-67
2024/02/12 10:10:53;;;;;;;1.02;0.80;;;8.40;99.90;;;8.65;100.00;99369.72;6126435;23;20166;-67
2024/02/12 10:13:23;;;;;;;5.60;2.63;;;8.40;99.90;;;8.85;100.00;99369.47;6126882;23;20230;-68
2024/02/12 10:15:53;;;;;;;1.52;1.42;;;8.60;99.90;;;8.79;100.00;99367.69;6126324;23;20593;-67
2024/02/12 10:18:22;;;;;;;2.60;2.28;;;8.60;99.90;;;8.95;100.00;99372.44;6127434;23;20187;-68
2024/02/12 10:20:51;;;;;;;2.55;1.95;;;8.70;99.90;;;9.12;100.00;99374.28;6126683;23;20671;-66
2024/02/12 10:23:20;;;;;;;2.95;1.90;;;8.90;99.90;;;9.28;100.00;99382.78;6126090;23;20175;-69
2024/02/12 10:25:52;;;;;;;4.85;3.22;;;9.00;99.90;;;9.51;100.00;99382.81;6126537;23;20254;-68
2024/02/12 10:28:22;;;;;;;1.57;0.90;;;9.20;99.90;;;9.56;100.00;99388.34;6126239;23;20186;-68
2024/02/12 10:30:51;;;;;;;2.35;1.83;;;9.30;99.90;;;9.63;100.00;99390.97;6126437;23;20412;-67
2024/02/12 10:33:23;;;;;;;2.70;2.40;;;9.30;99.90;;;9.68;100.00;99391.91;6125570;23;20170;-67
2024/02/12 10:35:53;;;;;;;3.93;2.27;;;9.40;99.90;;;9.94;100.00;99391.44;6126085;23;20420;-67
2024/02/12 10:38:24;;;;;;;2.57;2.07;;;9.60;99.90;;;9.82;100.00;99401.44;6125299;23;20389;-67
2024/02/12 10:41:13;;;;;;;1.53;1.33;;;9.60;99.90;;;9.42;100.00;99411.22;6125107;23;20977;-67
2024/02/12 10:43:45;;;;;;;2.30;1.70;;;9.40;93.20;;;9.34;100.00;99401.59;6125205;23;20385;-67
2024/02/12 10:46:17;;;;;;;2.50;1.53;;;9.30;99.90;;;9.15;100.00;99400.78;6123657;23;20383;-69
2024/02/12 10:48:47;;;;;;;2.33;2.10;;;9.10;99.90;;;9.06;100.00;99394.06;6126424;23;20464;-68
2024/02/12 10:51:19;;;;;;;2.50;1.23;;;9.00;99.90;;;9.02;100.00;99403.69;6126449;23;20395;-68